This is the latest recevied weather packets stored in our database for station/object SP6PGH-13. If no packets are shown the sender has not sent any weather packets the latest 10 day(s).
| Time | Temp. | Humidity | Pressure | Rain* | Wind** | Luminosity | Snow |
|---|---|---|---|---|---|---|---|
| 1788595954 | 18.89° C | 64% | 1002.2 hPa | - | - | 463 W/m² | - |
| 1788595053 | 18.33° C | 68% | 1002.1 hPa | - | - | 428 W/m² | - |
| 1788594152 | 17.78° C | 69% | 1002 hPa | - | - | 363 W/m² | - |
| 1788593251 | 17.78° C | 72% | 1001.9 hPa | - | - | 233 W/m² | - |
| 1788592350 | 17.22° C | 76% | 1001.6 hPa | - | - | 276 W/m² | - |
| 1788591449 | 17.22° C | 77% | 1001.6 hPa | - | - | 236 W/m² | - |
| 1788590548 | 16.67° C | 81% | 1001.5 hPa | - | - | 203 W/m² | - |
| 1788589647 | 16.67° C | 85% | 1001.3 hPa | - | - | 146 W/m² | - |
| 1788588746 | 15.56° C | 87% | 1001.2 hPa | - | - | 50 W/m² | - |
| 1788587845 | 15.56° C | 88% | 1001.2 hPa | - | - | 49 W/m² | - |
| 1788559912 | 15.56° C | 93% | 997 hPa | - | - | - | - |
| 1788556307 | 15.56° C | 92% | 996.6 hPa | - | - | - | - |
| 1788553604 | 16.67° C | 86% | 997.1 hPa | - | - | - | - |
| 1788552702 | 16.67° C | 86% | 996.5 hPa | - | - | - | - |
| 1788551801 | 17.22° C | 85% | 996.9 hPa | - | - | - | - |
| 1788549999 | 21.67° C | 63% | 995.5 hPa | - | - | - | - |
| 1788545494 | 23.89° C | 62% | 993.2 hPa | - | - | - | - |
| 1788544593 | 24.44° C | 62% | 992.9 hPa | - | - | - | - |
| 1788539187 | 25° C | 61% | 994 hPa | - | - | 29 W/m² | - |
| 1788538286 | 25° C | 60% | 994 hPa | - | - | 33 W/m² | - |
| 1788537385 | 25° C | 61% | 994.2 hPa | - | - | 54 W/m² | - |
| 1788536484 | 24.44° C | 62% | 994.2 hPa | - | - | 77 W/m² | - |
| 1788535582 | 25° C | 62% | 994.4 hPa | - | - | 92 W/m² | - |
| 1788534681 | 25.56° C | 58% | 994.5 hPa | - | - | 201 W/m² | - |
| 1788533780 | 25.56° C | 58% | 994.8 hPa | - | - | 163 W/m² | - |
* Rain since midnight (hover to see other rain measurements)
** Current wind speed in m/s (hover to see current wind gust speed)